Time;durP1;ratioP1;P1;durP2;ratioP2;P2;SDS_P1;SDS_P2;PMS_P1;PMS_P2;Temp;Humidity;BMP_temperature;BMP_pressure;BME280_temperature;BME280_humidity;BME280_pressure;Samples;Min_cycle;Max_cycle;Signal;HPM_P1;HPM_P2
2022/10/10 00:01:36;;;;;;;41.50;21.80;;;;;;;4.88;64.90;100120.05;103154;1290;111229;-72
2022/10/10 00:04:05;;;;;;;37.60;19.50;;;;;;;4.86;65.09;100117.48;103063;1285;97977;-72
2022/10/10 00:06:33;;;;;;;32.50;15.90;;;;;;;4.83;65.07;100115.98;103065;1296;108682;-71
2022/10/10 00:09:04;;;;;;;34.00;17.80;;;;;;;4.82;65.15;100114.45;103030;1290;97844;-71
2022/10/10 00:11:33;;;;;;;30.80;16.70;;;;;;;4.81;65.19;100115.16;103066;1296;97993;-72
2022/10/10 00:14:03;;;;;;;32.60;16.60;;;;;;;4.80;65.14;100113.64;103075;1298;111275;-71
2022/10/10 00:16:32;;;;;;;32.20;17.40;;;;;;;4.78;65.25;100111.73;103134;1295;98683;-71
2022/10/10 00:19:00;;;;;;;37.80;20.20;;;;;;;4.78;65.23;100110.52;103023;1294;107476;-71
2022/10/10 00:21:30;;;;;;;37.40;20.80;;;;;;;4.77;65.27;100111.95;103007;1304;97888;-71
2022/10/10 00:23:59;;;;;;;35.20;19.40;;;;;;;4.75;65.27;100114.12;103084;1293;97891;-72
2022/10/10 00:26:28;;;;;;;33.60;17.10;;;;;;;4.74;65.22;100113.63;103086;1304;111129;-71
2022/10/10 00:28:57;;;;;;;34.50;18.60;;;;;;;4.72;65.39;100110.36;103123;1297;99050;-72
2022/10/10 00:31:26;;;;;;;27.90;15.60;;;;;;;4.70;65.40;100109.36;103157;1290;107518;-72
2022/10/10 00:33:56;;;;;;;32.50;17.50;;;;;;;4.68;65.36;100106.79;103077;1290;97849;-69
2022/10/10 00:36:24;;;;;;;33.80;17.80;;;;;;;4.68;65.42;100109.62;103098;1305;98038;-71
2022/10/10 00:38:52;;;;;;;32.80;17.10;;;;;;;4.66;65.57;100107.39;103046;1301;110770;-72
2022/10/10 00:41:21;;;;;;;32.60;16.40;;;;;;;4.67;65.54;100106.85;103103;1296;97860;-72
2022/10/10 00:44:11;;;;;;;34.10;19.10;;;;;;;4.64;65.47;100105.16;103060;1296;107556;-71
2022/10/10 00:46:40;;;;;;;32.30;16.70;;;;;;;4.61;65.45;100105.41;103032;1302;97992;-71
2022/10/10 00:49:23;;;;;;;32.60;18.60;;;;;;;4.59;65.46;100102.85;103023;1305;97993;-71
2022/10/10 00:51:55;;;;;;;33.00;17.50;;;;;;;4.60;65.73;100104.05;103089;1304;111149;-72
2022/10/10 00:54:27;;;;;;;33.30;16.00;;;;;;;4.59;65.62;100108.48;103084;1302;97934;-71
2022/10/10 00:57:08;;;;;;;37.30;18.20;;;;;;;4.56;65.64;100105.05;102978;1301;107451;-71
2022/10/10 00:59:41;;;;;;;33.20;17.90;;;;;;;4.53;65.66;100100.73;103052;1303;95220;-71
2022/10/10 01:02:08;;;;;;;23.60;11.60;;;;;;;4.51;65.70;100095.55;103100;1296;98578;-71
2022/10/10 01:04:41;;;;;;;27.70;14.10;;;;;;;4.51;65.89;100092.20;103069;1307;111246;-71
2022/10/10 01:07:23;;;;;;;28.10;14.40;;;;;;;4.54;66.22;100092.29;103078;1296;97898;-73
2022/10/10 01:09:55;;;;;;;27.20;14.00;;;;;;;4.57;66.15;100090.96;103092;1301;107550;-71
2022/10/10 01:12:41;;;;;;;32.30;14.80;;;;;;;4.59;66.54;100091.08;103102;1301;97864;-71
2022/10/10 01:15:15;;;;;;;26.30;13.00;;;;;;;4.61;66.43;100094.70;103090;1297;98025;-70
2022/10/10 01:17:47;;;;;;;36.80;19.10;;;;;;;4.64;66.36;100095.86;103092;1296;111225;-71
2022/10/10 01:20:38;;;;;;;39.60;21.90;;;;;;;4.62;66.20;100093.62;103122;1296;95771;-72
2022/10/10 01:23:37;;;;;;;44.00;20.80;;;;;;;4.56;65.99;100089.06;103034;1298;107472;-72
2022/10/10 01:26:23;;;;;;;39.10;23.00;;;;;;;4.49;65.97;100083.69;103114;1304;97964;-73
2022/10/10 01:29:22;;;;;;;43.10;21.50;;;;;;;4.41;65.73;100083.41;103148;1304;97883;-72
2022/10/10 01:31:55;;;;;;;38.30;20.80;;;;;;;4.28;65.70;100080.61;103072;1298;111728;-72
2022/10/10 01:34:43;;;;;;;38.80;20.50;;;;;;;4.19;65.81;100074.55;103111;1298;97986;-72
2022/10/10 01:37:24;;;;;;;37.40;20.10;;;;;;;4.15;66.10;100074.33;103051;1294;107362;-72
2022/10/10 01:40:29;;;;;;;30.70;14.30;;;;;;;4.12;66.07;100070.05;103095;1284;95884;-71
2022/10/10 01:43:08;;;;;;;29.90;14.70;;;;;;;4.10;66.38;100070.61;103076;1304;97995;-72
2022/10/10 01:45:36;;;;;;;28.80;14.20;;;;;;;4.11;66.65;100073.23;103124;1293;111309;-72
2022/10/10 01:48:06;;;;;;;29.70;14.60;;;;;;;4.11;66.84;100074.29;103190;1297;97914;-71
2022/10/10 01:50:59;;;;;;;27.60;13.50;;;;;;;4.10;66.69;100072.73;103083;1307;108497;-72
2022/10/10 01:53:39;;;;;;;29.00;13.30;;;;;;;4.12;66.81;100065.83;103095;1298;97961;-71
2022/10/10 01:56:06;;;;;;;28.50;13.30;;;;;;;4.13;66.64;100064.40;103118;1298;95556;-71
2022/10/10 01:58:56;;;;;;;32.50;15.30;;;;;;;4.13;66.47;100065.27;103161;1290;110778;-74
2022/10/10 02:01:35;;;;;;;31.80;13.90;;;;;;;4.11;66.47;100063.56;103090;1306;97981;-74
2022/10/10 02:04:11;;;;;;;25.90;12.90;;;;;;;4.11;66.54;100060.25;103137;1298;107496;-71
2022/10/10 02:06:55;;;;;;;27.00;13.60;;;;;;;4.12;66.80;100058.98;103082;1302;97960;-71
2022/10/10 02:09:32;;;;;;;29.90;13.10;;;;;;;4.16;67.02;100053.94;103066;1298;97896;-72
2022/10/10 02:12:03;;;;;;;25.70;13.10;;;;;;;4.22;67.02;100056.44;103137;1297;109729;-72
2022/10/10 02:14:56;;;;;;;25.90;13.50;;;;;;;4.24;67.01;100057.73;103103;1303;96595;-72
2022/10/10 02:17:26;;;;;;;27.10;14.40;;;;;;;4.25;67.37;100058.56;103016;1305;107414;-72
2022/10/10 02:19:58;;;;;;;31.10;15.40;;;;;;;4.27;67.25;100058.02;103072;1305;95236;-71
2022/10/10 02:22:28;;;;;;;29.50;15.40;;;;;;;4.27;67.21;100061.34;103093;1300;98124;-72
2022/10/10 02:24:55;;;;;;;29.00;14.80;;;;;;;4.26;66.96;100061.89;103127;1290;111150;-72
2022/10/10 02:27:45;;;;;;;27.10;13.90;;;;;;;4.26;67.06;100067.01;103159;1298;95199;-74
2022/10/10 02:30:18;;;;;;;25.90;13.30;;;;;;;4.25;67.32;100071.94;103115;1296;108206;-73
2022/10/10 02:32:46;;;;;;;30.40;17.20;;;;;;;4.26;67.42;100067.54;103106;1303;97947;-74
2022/10/10 02:35:24;;;;;;;32.00;16.90;;;;;;;4.24;67.07;100064.60;103108;1299;95821;-73
2022/10/10 02:37:54;;;;;;;35.30;19.50;;;;;;;4.18;66.94;100063.02;103128;1299;111865;-74
2022/10/10 02:40:29;;;;;;;35.40;19.80;;;;;;;4.08;66.92;100059.98;103133;1305;95842;-74
2022/10/10 02:43:03;;;;;;;41.10;23.50;;;;;;;4.04;67.15;100062.38;103112;1302;107231;-72
2022/10/10 02:45:33;;;;;;;40.70;20.20;;;;;;;4.01;67.17;100062.81;103144;1303;98005;-73
2022/10/10 02:48:02;;;;;;;40.80;21.30;;;;;;;3.99;67.11;100067.63;103144;1300;97880;-73
2022/10/10 02:50:31;;;;;;;40.80;21.40;;;;;;;3.96;67.18;100066.30;103106;1304;111191;-73
2022/10/10 02:52:59;;;;;;;38.60;21.00;;;;;;;3.92;67.20;100067.10;103168;1299;97899;-72
2022/10/10 02:55:27;;;;;;;37.70;20.80;;;;;;;3.89;67.01;100067.56;103136;1290;107536;-72
2022/10/10 02:57:55;;;;;;;37.90;21.00;;;;;;;3.86;67.25;100071.86;103100;1303;95964;-73
2022/10/10 03:00:22;;;;;;;29.00;14.60;;;;;;;3.82;67.27;100073.73;103165;1304;97780;-71
2022/10/10 03:02:50;;;;;;;26.30;14.90;;;;;;;3.80;67.55;100072.90;103036;1303;111060;-73
2022/10/10 03:05:20;;;;;;;26.30;14.10;;;;;;;3.81;67.65;100072.34;103078;1304;97922;-73
2022/10/10 03:07:49;;;;;;;28.40;14.80;;;;;;;3.81;67.76;100073.41;103110;1301;107492;-71
2022/10/10 03:10:17;;;;;;;31.80;16.00;;;;;;;3.80;68.24;100068.86;103084;1290;98006;-72
2022/10/10 03:12:45;;;;;;;28.70;16.10;;;;;;;3.81;68.02;100065.14;103170;1298;97885;-71
2022/10/10 03:15:12;;;;;;;31.50;17.40;;;;;;;3.82;68.09;100061.98;103151;1288;111254;-73
2022/10/10 03:17:41;;;;;;;30.90;17.30;;;;;;;3.81;67.74;100064.29;103177;1304;97957;-71
2022/10/10 03:20:10;;;;;;;36.80;20.20;;;;;;;3.76;67.85;100063.17;103158;1296;107656;-71
2022/10/10 03:22:38;;;;;;;36.70;20.80;;;;;;;3.73;67.82;100062.91;103168;1297;97969;-71
2022/10/10 03:25:06;;;;;;;37.70;20.60;;;;;;;3.70;67.77;100065.44;103195;1296;98931;-72
2022/10/10 03:27:33;;;;;;;39.30;21.40;;;;;;;3.68;67.77;100068.82;103179;1304;111211;-73
2022/10/10 03:30:05;;;;;;;41.20;21.50;;;;;;;3.64;67.79;100061.44;103167;1306;97911;-74
2022/10/10 03:32:33;;;;;;;38.60;19.70;;;;;;;3.60;67.53;100065.38;103140;1301;107552;-70
2022/10/10 03:35:01;;;;;;;36.20;19.90;;;;;;;3.55;67.63;100059.89;103178;1294;97981;-71
2022/10/10 03:37:28;;;;;;;41.30;21.70;;;;;;;3.51;67.62;100060.39;103178;1298;98014;-72
2022/10/10 03:39:56;;;;;;;37.90;20.40;;;;;;;3.45;67.83;100057.06;103170;1296;110327;-71
2022/10/10 03:42:24;;;;;;;40.10;22.30;;;;;;;3.40;67.85;100058.05;103176;1304;96997;-73
2022/10/10 03:44:53;;;;;;;39.50;21.10;;;;;;;3.37;67.87;100057.77;103172;1301;107539;-71
2022/10/10 03:47:20;;;;;;;38.90;21.60;;;;;;;3.35;67.42;100057.13;103190;1297;97890;-69
2022/10/10 03:49:49;;;;;;;40.40;23.60;;;;;;;3.32;67.60;100055.09;103156;1303;96281;-71
2022/10/10 03:52:17;;;;;;;42.00;23.80;;;;;;;3.28;67.52;100054.33;103146;1301;110131;-71
2022/10/10 03:54:45;;;;;;;39.00;22.40;;;;;;;3.25;67.79;100055.13;103096;1297;96097;-73
2022/10/10 03:57:13;;;;;;;39.70;21.70;;;;;;;3.23;67.60;100053.77;103148;1297;107493;-72
2022/10/10 03:59:42;;;;;;;39.00;21.20;;;;;;;3.20;67.90;100051.75;103124;1297;95221;-72
2022/10/10 04:02:10;;;;;;;40.80;20.70;;;;;;;3.20;67.49;100054.73;103161;1294;95960;-72
2022/10/10 04:04:38;;;;;;;40.00;21.70;;;;;;;3.18;67.75;100052.84;103129;1297;111152;-72
2022/10/10 04:07:06;;;;;;;41.50;22.30;;;;;;;3.15;67.80;100051.50;103110;1303;98525;-73
2022/10/10 04:09:33;;;;;;;37.80;23.00;;;;;;;3.12;67.70;100055.79;103089;1298;107319;-75
2022/10/10 04:12:02;;;;;;;38.70;22.40;;;;;;;3.10;67.83;100058.83;103078;1303;96828;-72
2022/10/10 04:14:32;;;;;;;38.20;22.00;;;;;;;3.06;68.16;100059.80;103105;1296;98048;-71
2022/10/10 04:17:00;;;;;;;40.80;22.40;;;;;;;3.04;67.89;100052.87;103117;1297;111109;-70
2022/10/10 04:19:31;;;;;;;37.60;21.90;;;;;;;2.99;68.23;100050.36;103141;1303;97895;-71
2022/10/10 04:21:58;;;;;;;42.00;23.30;;;;;;;2.96;68.03;100045.86;103109;1304;107433;-70
2022/10/10 04:24:27;;;;;;;42.70;23.10;;;;;;;2.94;67.93;100046.98;103091;1306;98019;-70
2022/10/10 04:26:55;;;;;;;42.80;23.70;;;;;;;2.92;68.19;100046.15;103127;1297;95919;-71
2022/10/10 04:29:23;;;;;;;41.40;23.10;;;;;;;2.89;67.91;100042.18;103083;1296;111203;-69
2022/10/10 04:31:53;;;;;;;44.60;23.40;;;;;;;2.86;68.30;100045.59;103170;1293;97877;-69
2022/10/10 04:34:21;;;;;;;41.00;22.80;;;;;;;2.83;68.21;100045.86;103102;1297;107368;-70
2022/10/10 04:36:49;;;;;;;44.40;24.10;;;;;;;2.81;67.94;100047.48;103049;1301;97880;-70
2022/10/10 04:39:18;;;;;;;40.10;23.50;;;;;;;2.78;68.33;100049.65;103063;1297;97872;-71
2022/10/10 04:41:49;;;;;;;41.50;22.90;;;;;;;2.76;68.27;100048.48;103036;1303;110845;-70
2022/10/10 04:44:17;;;;;;;45.40;24.10;;;;;;;2.74;68.38;100049.23;103073;1297;123949;-70
2022/10/10 04:46:45;;;;;;;41.30;23.80;;;;;;;2.71;68.29;100051.05;103064;1303;107198;-70
2022/10/10 04:49:13;;;;;;;40.20;23.30;;;;;;;2.67;68.37;100050.25;102978;1288;98001;-71
2022/10/10 04:51:40;;;;;;;40.90;22.90;;;;;;;2.64;68.16;100052.45;103055;1297;97946;-72
2022/10/10 04:54:09;;;;;;;44.10;22.40;;;;;;;2.62;67.95;100054.07;103059;1305;111152;-75
2022/10/10 04:56:38;;;;;;;41.90;22.70;;;;;;;2.60;68.21;100052.88;103108;1294;97869;-69
2022/10/10 04:59:08;;;;;;;44.10;23.40;;;;;;;2.58;68.07;100053.46;103058;1288;106607;-70
2022/10/10 05:01:36;;;;;;;41.50;24.60;;;;;;;2.56;68.09;100050.20;103094;1296;97959;-72
2022/10/10 05:04:04;;;;;;;43.20;24.60;;;;;;;2.55;68.25;100049.15;103043;1291;97886;-72
2022/10/10 05:06:33;;;;;;;40.40;22.70;;;;;;;2.55;68.35;100047.94;103085;1305;109587;-73
2022/10/10 05:09:01;;;;;;;46.40;24.10;;;;;;;2.54;68.21;100052.14;103085;1298;96530;-73
2022/10/10 05:11:28;;;;;;;40.10;22.50;;;;;;;2.53;68.31;100048.32;103072;1303;107217;-72
2022/10/10 05:13:57;;;;;;;37.50;21.00;;;;;;;2.53;68.12;100051.30;103085;1303;97962;-72
2022/10/10 05:16:25;;;;;;;36.50;21.30;;;;;;;2.51;68.23;100050.99;103084;1297;97994;-75
2022/10/10 05:18:53;;;;;;;38.20;21.40;;;;;;;2.49;68.29;100048.05;103109;1297;110754;-73
2022/10/10 05:21:21;;;;;;;37.50;22.70;;;;;;;2.50;68.21;100048.93;103211;1290;97962;-71
2022/10/10 05:23:49;;;;;;;40.30;20.90;;;;;;;2.50;68.55;100047.33;103204;1305;108035;-73
2022/10/10 05:26:18;;;;;;;43.50;23.70;;;;;;;2.52;68.37;100043.98;103125;1303;95826;-71
2022/10/10 05:28:48;;;;;;;40.30;23.00;;;;;;;2.55;68.91;100040.05;103247;1304;98003;-71
2022/10/10 05:31:15;;;;;;;42.00;23.40;;;;;;;2.57;68.54;100036.86;104506;1305;111195;-71
2022/10/10 05:33:43;;;;;;;45.50;24.40;;;;;;;2.60;68.80;100035.04;103142;1302;97851;-70
2022/10/10 05:36:12;;;;;;;46.10;26.00;;;;;;;2.64;68.76;100038.77;103127;1303;107633;-71
2022/10/10 05:38:41;;;;;;;45.60;27.70;;;;;;;2.66;68.83;100039.95;103132;1296;95220;-69
2022/10/10 05:41:09;;;;;;;47.50;27.10;;;;;;;2.67;68.64;100040.95;103170;1304;95209;-70
2022/10/10 05:43:37;;;;;;;43.60;24.90;;;;;;;2.70;68.36;100044.41;103183;1297;111211;-70
2022/10/10 05:46:05;;;;;;;42.30;24.90;;;;;;;2.70;68.85;100044.05;103170;1296;95221;-70
2022/10/10 05:48:33;;;;;;;42.30;24.40;;;;;;;2.71;68.52;100040.20;103088;1297;107461;-70
2022/10/10 05:51:00;;;;;;;47.40;24.40;;;;;;;2.73;68.73;100041.36;103148;1304;97853;-70
2022/10/10 05:53:30;;;;;;;45.40;25.20;;;;;;;2.74;68.72;100042.23;103080;1296;97918;-70
2022/10/10 05:56:00;;;;;;;44.30;24.90;;;;;;;2.76;68.77;100040.24;103103;1305;111122;-70
2022/10/10 05:58:29;;;;;;;41.70;24.10;;;;;;;2.77;69.04;100039.68;103154;1304;95214;-71
2022/10/10 06:01:04;;;;;;;39.80;23.60;;;;;;;2.80;68.81;100043.48;103112;1287;105586;-70
2022/10/10 06:03:34;;;;;;;50.90;27.10;;;;;;;2.83;69.05;100040.92;103094;1290;96876;-71
2022/10/10 06:06:03;;;;;;;55.00;27.50;;;;;;;2.88;68.79;100035.38;103116;1299;98122;-71
2022/10/10 06:08:31;;;;;;;50.90;27.00;;;;;;;2.93;69.33;100038.76;103100;1304;111328;-71
2022/10/10 06:11:07;;;;;;;46.50;26.00;;;;;;;2.96;69.11;100032.72;103139;1301;97774;-70
2022/10/10 06:13:37;;;;;;;48.20;26.10;;;;;;;3.02;69.23;100029.09;103131;1298;107599;-71
2022/10/10 06:16:05;;;;;;;51.30;27.70;;;;;;;3.07;69.06;100029.28;103158;1298;98343;-71
2022/10/10 06:18:35;;;;;;;49.30;26.20;;;;;;;3.13;69.14;100027.91;103116;1290;95140;-72
2022/10/10 06:21:07;;;;;;;39.40;22.80;;;;;;;3.19;69.23;100028.27;103050;1304;111123;-71
2022/10/10 06:23:36;;;;;;;41.30;22.10;;;;;;;3.26;69.42;100027.90;103126;1302;97935;-70
2022/10/10 06:26:04;;;;;;;38.30;20.70;;;;;;;3.35;69.47;100027.16;103158;1303;107291;-69
2022/10/10 06:28:34;;;;;;;38.60;22.40;;;;;;;3.43;69.42;100028.86;103138;1305;98018;-71
2022/10/10 06:31:07;;;;;;;43.10;21.60;;;;;;;3.50;69.60;100024.27;103133;1301;97973;-71
2022/10/10 06:33:36;;;;;;;42.50;23.70;;;;;;;3.59;69.72;100027.17;103093;1294;110231;-71
2022/10/10 06:36:06;;;;;;;40.40;23.70;;;;;;;3.67;69.82;100024.33;103159;1305;96313;-71
2022/10/10 06:38:39;;;;;;;39.10;22.10;;;;;;;3.75;69.76;100026.72;103045;1305;108749;-72
2022/10/10 06:41:09;;;;;;;42.10;21.60;;;;;;;3.84;69.75;100027.17;103171;1296;97914;-72
2022/10/10 06:43:38;;;;;;;38.70;21.40;;;;;;;3.94;69.56;100028.29;103045;1299;97890;-68
2022/10/10 06:46:06;;;;;;;42.10;21.10;;;;;;;4.01;69.69;100027.54;103099;1304;111063;-71
2022/10/10 06:48:34;;;;;;;38.90;21.00;;;;;;;4.10;69.68;100025.34;103202;1304;96967;-71
2022/10/10 06:51:08;;;;;;;40.40;21.50;;;;;;;4.19;69.83;100021.73;103151;1303;107724;-70
2022/10/10 06:53:35;;;;;;;39.40;22.10;;;;;;;4.28;69.93;100019.16;103148;1308;98444;-70
2022/10/10 06:56:05;;;;;;;36.70;20.20;;;;;;;4.38;69.93;100021.83;103150;1303;98996;-70
2022/10/10 06:58:34;;;;;;;37.50;19.30;;;;;;;4.47;70.08;100018.04;103134;1297;111135;-71
2022/10/10 07:01:04;;;;;;;34.60;18.60;;;;;;;4.58;70.03;100018.40;103050;1303;98007;-71
2022/10/10 07:03:32;;;;;;;33.90;17.70;;;;;;;4.69;70.19;100015.77;103051;1303;107242;-72
2022/10/10 07:06:02;;;;;;;33.50;18.90;;;;;;;4.78;70.09;100015.61;103136;1296;99583;-70
2022/10/10 07:08:31;;;;;;;34.60;19.00;;;;;;;4.89;70.21;100015.95;103155;1303;97914;-69
2022/10/10 07:10:59;;;;;;;34.70;17.50;;;;;;;4.98;70.23;100012.67;103097;1305;111197;-70
2022/10/10 07:13:27;;;;;;;34.70;17.90;;;;;;;5.08;70.21;100010.95;103083;1301;97874;-70
2022/10/10 07:15:55;;;;;;;30.30;16.70;;;;;;;5.16;70.20;100011.52;103099;1288;107510;-69
2022/10/10 07:18:23;;;;;;;31.20;17.20;;;;;;;5.24;70.21;100010.91;103056;1295;97893;-70
2022/10/10 07:20:56;;;;;;;34.20;16.90;;;;;;;5.33;70.18;100010.74;103095;1303;95309;-70
2022/10/10 07:23:25;;;;;;;30.60;16.20;;;;;;;5.43;70.18;100001.27;103042;1304;111426;-69
2022/10/10 07:26:03;;;;;;;29.40;16.10;;;;;;;5.52;70.28;100004.27;103095;1303;96237;-71
2022/10/10 07:28:31;;;;;;;29.10;15.50;;;;;;;5.61;70.30;100001.63;103126;1305;107210;-72
2022/10/10 07:31:06;;;;;;;29.70;14.40;;;;;;;5.71;70.35;100004.27;103055;1310;97873;-72
2022/10/10 07:33:38;;;;;;;30.80;15.70;;;;;;;5.81;70.29;100006.35;103132;1301;97852;-73
2022/10/10 07:36:07;;;;;;;27.70;14.60;;;;;;;5.92;70.49;100004.69;103154;1303;111033;-72
2022/10/10 07:38:37;;;;;;;30.90;16.10;;;;;;;6.04;70.53;100006.06;103137;1302;95146;-72
2022/10/10 07:41:08;;;;;;;30.40;16.60;;;;;;;6.15;70.62;100006.50;103131;1301;107520;-73
2022/10/10 07:43:37;;;;;;;30.50;16.00;;;;;;;6.28;70.46;100008.13;103186;1304;97968;-71
2022/10/10 07:46:11;;;;;;;27.90;14.90;;;;;;;6.38;70.34;100005.41;103211;1302;97869;-71
2022/10/10 07:48:39;;;;;;;29.40;17.00;;;;;;;6.48;70.48;100001.85;103158;1297;109706;-71
2022/10/10 07:51:08;;;;;;;31.20;16.20;;;;;;;6.59;70.40;100004.92;103165;1303;98240;-71
2022/10/10 07:53:38;;;;;;;32.90;16.70;;;;;;;6.70;70.60;100003.95;103294;1306;107227;-71
2022/10/10 07:56:09;;;;;;;31.70;16.90;;;;;;;6.81;70.35;100004.38;103084;1303;96314;-70
2022/10/10 07:58:38;;;;;;;30.60;17.20;;;;;;;6.92;70.69;100009.05;103238;1301;96694;-70
2022/10/10 08:01:10;;;;;;;31.30;15.90;;;;;;;7.03;70.72;100007.14;103208;1297;110819;-70
2022/10/10 08:03:39;;;;;;;25.60;14.40;;;;;;;7.21;70.68;100003.20;103153;1305;97971;-69
2022/10/10 08:06:11;;;;;;;25.90;12.80;;;;;;;7.38;70.58;99999.28;103145;1303;107380;-70
2022/10/10 08:08:40;;;;;;;24.70;12.60;;;;;;;7.53;70.86;99998.42;103161;1299;97906;-70
2022/10/10 08:11:20;;;;;;;26.60;12.60;;;;;;;7.70;70.78;99992.72;103145;1306;97854;-70
2022/10/10 08:13:49;;;;;;;27.10;12.60;;;;;;;7.82;70.85;99992.88;103170;1303;110984;-70
2022/10/10 08:16:19;;;;;;;24.80;11.90;;;;;;;7.94;70.86;99990.21;103214;1298;97966;-69
2022/10/10 08:18:48;;;;;;;19.80;9.50;;;;;;;8.07;70.80;99987.49;103055;1303;109422;-69
2022/10/10 08:21:17;;;;;;;20.40;8.60;;;;;;;8.21;70.83;99987.19;103095;1304;95945;-70
2022/10/10 08:23:46;;;;;;;16.40;7.30;;;;;;;8.33;70.69;99984.28;103081;1306;98026;-70
2022/10/10 08:26:16;;;;;;;21.70;10.80;;;;;;;8.49;70.82;99986.02;103153;1303;111887;-71
2022/10/10 08:28:47;;;;;;;21.00;8.90;;;;;;;8.69;70.83;99983.98;103070;1297;97934;-70
2022/10/10 08:31:19;;;;;;;15.50;7.00;;;;;;;9.03;70.87;99981.41;103145;1293;107975;-70
2022/10/10 08:33:50;;;;;;;14.20;7.00;;;;;;;9.46;70.72;99976.31;103123;1310;97948;-70
2022/10/10 08:36:23;;;;;;;14.80;6.70;;;;;;;9.98;70.75;99970.14;103154;1304;97994;-70
2022/10/10 08:39:00;;;;;;;14.90;6.40;;;;;;;10.58;70.64;99967.81;103074;1303;111160;-70
2022/10/10 08:41:46;;;;;;;17.00;6.70;;;;;;;11.18;70.41;99968.56;103104;1302;96488;-70
2022/10/10 08:44:41;;;;;;;16.00;6.30;;;;;;;11.87;69.94;99968.25;103135;1298;107486;-72
2022/10/10 08:47:17;;;;;;;13.20;5.20;;;;;;;12.51;69.92;99960.79;103177;1301;97899;-71
2022/10/10 08:49:51;;;;;;;12.70;5.10;;;;;;;13.04;69.87;99954.19;103214;1303;97872;-71
2022/10/10 08:52:29;;;;;;;15.00;5.30;;;;;;;13.49;69.35;99945.41;103188;1303;111026;-72
2022/10/10 08:55:02;;;;;;;11.10;4.90;;;;;;;13.89;69.62;99944.02;103077;1296;95862;-72
2022/10/10 08:58:01;;;;;;;13.90;4.90;;;;;;;14.32;69.73;99944.64;103013;1304;107442;-71
2022/10/10 09:00:35;;;;;;;15.30;6.80;;;;;;;14.79;69.21;99938.95;102971;1303;97914;-71
2022/10/10 09:03:31;;;;;;;19.60;7.90;;;;;;;15.13;68.87;99934.05;103083;1298;97960;-71
2022/10/10 09:06:37;;;;;;;10.90;4.80;;;;;;;15.52;68.81;99931.17;103098;1304;111204;-74
2022/10/10 09:09:47;;;;;;;15.60;6.10;;;;;;;15.91;66.91;99925.77;103171;1293;98314;-70
2022/10/10 09:12:38;;;;;;;7.40;3.70;;;;;;;16.18;67.65;99924.53;103131;1301;107140;-71
2022/10/10 09:15:28;;;;;;;17.10;6.70;;;;;;;16.56;67.02;99919.91;102899;1302;97899;-71
2022/10/10 09:18:08;;;;;;;14.90;4.90;;;;;;;16.94;67.95;99917.95;102928;1307;97942;-73
2022/10/10 09:21:21;;;;;;;8.40;3.40;;;;;;;17.41;68.26;99911.13;103092;1303;111232;-70
2022/10/10 09:24:03;;;;;;;8.90;2.80;;;;;;;17.95;68.18;99906.33;103017;1298;97883;-70
2022/10/10 09:26:39;;;;;;;4.60;2.40;;;;;;;18.50;67.86;99902.96;103044;1305;106553;-70
2022/10/10 09:29:32;;;;;;;5.30;2.10;;;;;;;18.99;66.96;99901.14;103073;1302;98056;-70
2022/10/10 09:32:08;;;;;;;5.60;2.70;;;;;;;19.12;63.37;99901.58;103110;1304;95226;-71
2022/10/10 09:34:48;;;;;;;12.10;4.20;;;;;;;18.91;64.94;99901.16;103074;1293;111153;-68
2022/10/10 09:37:36;;;;;;;10.40;4.40;;;;;;;18.79;64.76;99898.88;103012;1305;97994;-70
2022/10/10 09:40:33;;;;;;;11.80;3.40;;;;;;;18.64;64.13;99894.55;103027;1294;107935;-69
2022/10/10 09:43:17;;;;;;;3.70;2.50;;;;;;;18.42;63.73;99892.45;103042;1305;98038;-73
2022/10/10 09:45:52;;;;;;;7.20;2.70;;;;;;;18.19;62.69;99893.99;103104;1293;98302;-70
2022/10/10 09:48:27;;;;;;;7.30;2.70;;;;;;;18.02;64.43;99896.42;103053;1304;111133;-69
2022/10/10 09:50:56;;;;;;;5.30;2.40;;;;;;;18.00;64.42;99893.88;103071;1306;97862;-70
2022/10/10 09:53:26;;;;;;;5.40;2.60;;;;;;;18.05;64.09;99889.84;103058;1298;107930;-70
2022/10/10 09:55:54;;;;;;;8.60;2.70;;;;;;;18.02;62.64;99886.93;103104;1302;97382;-72
2022/10/10 09:58:43;;;;;;;5.60;2.50;;;;;;;17.89;60.21;99886.58;103166;1299;98060;-70
2022/10/10 10:01:17;;;;;;;4.70;2.40;;;;;;;17.76;63.13;99878.82;103061;1296;111178;-70
2022/10/10 10:04:04;;;;;;;6.00;2.50;;;;;;;17.77;62.67;99876.35;103117;1303;97908;-72
2022/10/10 10:07:17;;;;;;;14.00;4.00;;;;;;;17.78;60.29;99876.87;103084;1302;107168;-71
2022/10/10 10:09:51;;;;;;;6.60;2.60;;;;;;;17.69;61.58;99871.73;103164;1296;97976;-70
2022/10/10 10:12:25;;;;;;;9.20;2.60;;;;;;;17.65;62.15;99867.81;103186;1298;98475;-70
2022/10/10 10:15:02;;;;;;;5.40;2.40;;;;;;;17.60;61.30;99865.46;103142;1297;111314;-70
2022/10/10 10:17:30;;;;;;;9.20;2.90;;;;;;;17.61;61.67;99863.10;103130;1304;97902;-70
2022/10/10 10:19:58;;;;;;;9.40;2.60;;;;;;;17.58;60.05;99864.27;103165;1298;107594;-70
2022/10/10 10:22:31;;;;;;;8.30;3.40;;;;;;;17.53;60.45;99863.44;103145;1301;98393;-70
2022/10/10 10:25:31;;;;;;;7.30;2.90;;;;;;;17.56;60.78;99856.50;103149;1298;98056;-69
2022/10/10 10:28:20;;;;;;;4.70;2.40;;;;;;;17.73;60.48;99850.89;103160;1302;110958;-71
2022/10/10 10:30:53;;;;;;;4.80;2.60;;;;;;;17.92;60.75;99848.48;103180;1296;97982;-73
2022/10/10 10:33:37;;;;;;;6.10;2.60;;;;;;;18.09;60.40;99845.14;103163;1296;107524;-69
2022/10/10 10:36:40;;;;;;;8.70;2.80;;;;;;;18.25;59.89;99845.35;103146;1298;97913;-71
2022/10/10 10:39:37;;;;;;;6.80;2.60;;;;;;;18.20;58.28;99844.89;102919;1302;97934;-71
2022/10/10 10:42:20;;;;;;;6.50;2.50;;;;;;;18.14;59.42;99846.34;103153;1294;110994;-72
2022/10/10 10:45:12;;;;;;;4.90;2.30;;;;;;;18.23;58.72;99845.14;103099;1306;97836;-70
2022/10/10 10:47:57;;;;;;;10.80;2.60;;;;;;;18.33;58.99;99840.13;103136;1305;108123;-69
2022/10/10 10:50:37;;;;;;;6.50;2.60;;;;;;;18.47;58.83;99833.98;103080;1303;97828;-69
2022/10/10 10:53:33;;;;;;;6.10;2.50;;;;;;;18.57;58.68;99828.70;103192;1296;95223;-69
2022/10/10 10:56:12;;;;;;;3.70;2.40;;;;;;;18.68;58.46;99824.30;103150;1301;111776;-69
2022/10/10 10:59:07;;;;;;;7.30;2.60;;;;;;;18.77;58.08;99818.37;103094;1297;97986;-71
2022/10/10 11:02:10;;;;;;;6.60;2.50;;;;;;;18.83;58.26;99812.83;103102;1304;107462;-69
2022/10/10 11:05:27;;;;;;;7.10;2.70;;;;;;;18.89;56.55;99811.27;103164;1304;97931;-70
2022/10/10 11:08:19;;;;;;;6.60;2.50;;;;;;;18.81;57.37;99801.30;102874;1303;98112;-69
2022/10/10 11:11:16;;;;;;;5.80;2.60;;;;;;;18.86;57.66;99799.67;102782;1310;111219;-68
2022/10/10 11:14:00;;;;;;;8.50;3.20;;;;;;;18.95;57.06;99792.26;102979;1297;95402;-70
2022/10/10 11:16:50;;;;;;;5.90;2.90;;;;;;;19.01;57.36;99789.48;103065;1297;107523;-71
2022/10/10 11:19:24;;;;;;;7.30;3.00;;;;;;;19.11;56.79;99789.52;103056;1304;97968;-71
2022/10/10 11:22:06;;;;;;;7.80;3.00;;;;;;;19.16;54.85;99790.58;103140;1297;97887;-71
2022/10/10 11:24:59;;;;;;;9.50;2.90;;;;;;;19.09;56.26;99787.05;103068;1297;111192;-68
2022/10/10 11:27:42;;;;;;;7.80;2.50;;;;;;;19.07;56.01;99786.11;103142;1304;95144;-68
2022/10/10 11:30:25;;;;;;;7.80;3.00;;;;;;;19.09;56.34;99780.66;103047;1293;107593;-70
2022/10/10 11:33:19;;;;;;;6.40;3.20;;;;;;;19.11;56.54;99774.54;103106;1280;96351;-70
2022/10/10 11:35:57;;;;;;;8.60;2.90;;;;;;;19.22;56.19;99768.63;103072;1298;98108;-69
2022/10/10 11:39:01;;;;;;;7.40;3.20;;;;;;;19.31;56.20;99769.72;103121;1298;111631;-68
2022/10/10 11:41:42;;;;;;;8.40;2.90;;;;;;;19.43;56.03;99766.41;102855;1296;96788;-69
2022/10/10 11:44:16;;;;;;;9.70;3.40;;;;;;;19.50;55.71;99765.72;103080;1298;107867;-69